sensor_id;sensor_type;location;lat;lon;timestamp;pressure;altitude;pressure_sealevel;temperature;humidity
5283;BME280;15376;48.540;9.268;2023-04-07T00:01:13;97524.09;;;6.02;100.00
5283;BME280;15376;48.540;9.268;2023-04-07T00:03:39;97515.53;;;6.00;100.00
5283;BME280;15376;48.540;9.268;2023-04-07T00:06:05;97512.94;;;6.09;100.00
5283;BME280;15376;48.540;9.268;2023-04-07T00:08:31;97504.22;;;6.08;100.00
5283;BME280;15376;48.540;9.268;2023-04-07T00:10:56;97504.88;;;6.10;100.00
5283;BME280;15376;48.540;9.268;2023-04-07T00:13:22;97501.28;;;6.11;100.00
5283;BME280;15376;48.540;9.268;2023-04-07T00:15:48;97502.09;;;6.12;100.00
5283;BME280;15376;48.540;9.268;2023-04-07T00:18:13;97499.78;;;6.09;100.00
5283;BME280;15376;48.540;9.268;2023-04-07T00:20:39;97502.25;;;6.10;100.00
5283;BME280;15376;48.540;9.268;2023-04-07T00:23:04;97486.38;;;6.02;100.00
5283;BME280;15376;48.540;9.268;2023-04-07T00:25:29;97495.03;;;6.12;100.00
5283;BME280;15376;48.540;9.268;2023-04-07T00:27:55;97485.09;;;6.06;100.00
5283;BME280;15376;48.540;9.268;2023-04-07T00:30:20;97480.63;;;6.07;100.00
5283;BME280;15376;48.540;9.268;2023-04-07T00:32:46;97487.09;;;6.12;100.00
5283;BME280;15376;48.540;9.268;2023-04-07T00:35:11;97468.81;;;6.11;100.00
5283;BME280;15376;48.540;9.268;2023-04-07T00:37:36;97480.38;;;6.18;100.00
5283;BME280;15376;48.540;9.268;2023-04-07T00:40:02;97472.13;;;6.13;100.00
5283;BME280;15376;48.540;9.268;2023-04-07T00:42:28;97473.25;;;6.10;100.00
5283;BME280;15376;48.540;9.268;2023-04-07T00:44:53;97479.56;;;6.17;100.00
5283;BME280;15376;48.540;9.268;2023-04-07T00:47:19;97475.28;;;6.16;100.00
5283;BME280;15376;48.540;9.268;2023-04-07T00:49:44;97473.25;;;6.10;100.00
5283;BME280;15376;48.540;9.268;2023-04-07T00:52:10;97467.97;;;6.10;100.00
5283;BME280;15376;48.540;9.268;2023-04-07T00:54:37;97462.88;;;6.09;100.00
5283;BME280;15376;48.540;9.268;2023-04-07T00:57:02;97467.97;;;6.10;100.00
5283;BME280;15376;48.540;9.268;2023-04-07T00:59:28;97465.66;;;6.07;100.00
5283;BME280;15376;48.540;9.268;2023-04-07T01:02:09;97459.03;;;6.03;100.00
5283;BME280;15376;48.540;9.268;2023-04-07T01:04:42;97451.94;;;6.03;100.00
5283;BME280;15376;48.540;9.268;2023-04-07T01:07:14;97436.63;;;5.99;100.00
5283;BME280;15376;48.540;9.268;2023-04-07T01:09:53;97438.63;;;6.05;100.00
5283;BME280;15376;48.540;9.268;2023-04-07T01:12:27;97436.66;;;6.07;100.00
5283;BME280;15376;48.540;9.268;2023-04-07T01:14:58;97430.41;;;6.08;100.00
5283;BME280;15376;48.540;9.268;2023-04-07T01:17:24;97427.75;;;6.08;100.00
5283;BME280;15376;48.540;9.268;2023-04-07T01:19:56;97431.06;;;6.10;100.00
5283;BME280;15376;48.540;9.268;2023-04-07T01:22:28;97431.06;;;6.10;100.00
5283;BME280;15376;48.540;9.268;2023-04-07T01:30:32;97424.19;;;6.17;100.00
5283;BME280;15376;48.540;9.268;2023-04-07T01:33:00;97415.63;;;6.15;100.00
5283;BME280;15376;48.540;9.268;2023-04-07T01:35:31;97418.47;;;6.22;100.00
5283;BME280;15376;48.540;9.268;2023-04-07T01:37:58;97413.69;;;6.25;100.00
5283;BME280;15376;48.540;9.268;2023-04-07T01:40:24;97415.03;;;6.29;100.00
5283;BME280;15376;48.540;9.268;2023-04-07T01:42:51;97410.22;;;6.25;100.00
5283;BME280;15376;48.540;9.268;2023-04-07T01:45:17;97412.34;;;6.21;100.00
5283;BME280;15376;48.540;9.268;2023-04-07T01:47:45;97404.34;;;6.05;100.00
5283;BME280;15376;48.540;9.268;2023-04-07T01:50:11;97405.84;;;6.08;100.00
5283;BME280;15376;48.540;9.268;2023-04-07T01:52:37;97409.00;;;6.11;100.00
5283;BME280;15376;48.540;9.268;2023-04-07T01:55:05;97407.09;;;6.21;100.00
5283;BME280;15376;48.540;9.268;2023-04-07T01:57:30;97410.06;;;6.26;100.00
5283;BME280;15376;48.540;9.268;2023-04-07T01:59:56;97407.25;;;6.20;100.00
5283;BME280;15376;48.540;9.268;2023-04-07T02:02:21;97403.47;;;6.22;100.00
5283;BME280;15376;48.540;9.268;2023-04-07T02:04:56;97393.91;;;6.21;100.00
5283;BME280;15376;48.540;9.268;2023-04-07T02:07:43;97390.94;;;6.24;100.00
5283;BME280;15376;48.540;9.268;2023-04-07T02:10:12;97390.94;;;6.24;100.00
5283;BME280;15376;48.540;9.268;2023-04-07T02:12:40;97385.69;;;6.24;100.00
5283;BME280;15376;48.540;9.268;2023-04-07T02:15:07;97397.56;;;6.28;100.00
5283;BME280;15376;48.540;9.268;2023-04-07T02:17:35;97384.22;;;6.30;100.00
5283;BME280;15376;48.540;9.268;2023-04-07T02:20:02;97394.28;;;6.34;100.00
5283;BME280;15376;48.540;9.268;2023-04-07T02:22:30;97389.34;;;6.31;100.00
5283;BME280;15376;48.540;9.268;2023-04-07T02:24:56;97345.69;;;6.03;100.00
5283;BME280;15376;48.540;9.268;2023-04-07T02:27:21;97381.22;;;6.25;100.00
5283;BME280;15376;48.540;9.268;2023-04-07T02:29:46;97380.72;;;6.21;100.00
5283;BME280;15376;48.540;9.268;2023-04-07T02:32:12;97392.59;;;6.25;100.00
5283;BME280;15376;48.540;9.268;2023-04-07T02:34:37;97380.72;;;6.21;100.00
5283;BME280;15376;48.540;9.268;2023-04-07T02:37:02;97390.16;;;6.32;100.00
5283;BME280;15376;48.540;9.268;2023-04-07T02:39:28;97383.34;;;6.21;100.00
5283;BME280;15376;48.540;9.268;2023-04-07T02:41:53;97388.47;;;6.23;100.00
5283;BME280;15376;48.540;9.268;2023-04-07T02:44:18;97385.00;;;6.22;100.00
5283;BME280;15376;48.540;9.268;2023-04-07T02:46:44;97380.41;;;6.24;100.00
5283;BME280;15376;48.540;9.268;2023-04-07T02:49:09;97383.34;;;6.21;100.00
5283;BME280;15376;48.540;9.268;2023-04-07T02:51:35;97382.72;;;6.27;100.00
5283;BME280;15376;48.540;9.268;2023-04-07T02:54:00;97367.84;;;6.18;100.00
5283;BME280;15376;48.540;9.268;2023-04-07T02:56:25;97369.03;;;6.24;100.00
5283;BME280;15376;48.540;9.268;2023-04-07T02:58:51;97370.69;;;6.25;100.00
5283;BME280;15376;48.540;9.268;2023-04-07T03:01:16;97374.81;;;6.27;100.00
5283;BME280;15376;48.540;9.268;2023-04-07T03:03:41;97367.56;;;6.29;100.00
5283;BME280;15376;48.540;9.268;2023-04-07T03:06:09;97357.84;;;6.30;100.00
5283;BME280;15376;48.540;9.268;2023-04-07T03:08:34;97358.53;;;6.32;100.00
5283;BME280;15376;48.540;9.268;2023-04-07T03:10:59;97355.72;;;6.33;100.00
5283;BME280;15376;48.540;9.268;2023-04-07T03:13:25;97360.00;;;6.34;100.00
5283;BME280;15376;48.540;9.268;2023-04-07T03:15:50;97351.44;;;6.32;100.00
5283;BME280;15376;48.540;9.268;2023-04-07T03:18:16;97344.81;;;6.28;100.00
5283;BME280;15376;48.540;9.268;2023-04-07T03:20:41;97351.75;;;6.29;100.00
5283;BME280;15376;48.540;9.268;2023-04-07T03:23:07;97353.09;;;6.33;100.00
5283;BME280;15376;48.540;9.268;2023-04-07T03:25:32;97343.16;;;6.27;100.00
5283;BME280;15376;48.540;9.268;2023-04-07T03:27:58;97349.13;;;6.29;100.00
5283;BME280;15376;48.540;9.268;2023-04-07T03:30:23;97338.38;;;6.23;100.00
5283;BME280;15376;48.540;9.268;2023-04-07T03:32:49;97331.91;;;6.17;100.00
5283;BME280;15376;48.540;9.268;2023-04-07T03:35:15;97325.97;;;6.15;100.00
5283;BME280;15376;48.540;9.268;2023-04-07T03:37:40;97327.44;;;6.10;100.00
5283;BME280;15376;48.540;9.268;2023-04-07T03:40:06;97337.19;;;6.17;100.00
5283;BME280;15376;48.540;9.268;2023-04-07T03:42:31;97335.53;;;6.16;100.00
5283;BME280;15376;48.540;9.268;2023-04-07T03:44:57;97319.19;;;6.05;100.00
5283;BME280;15376;48.540;9.268;2023-04-07T03:47:22;97323.31;;;6.07;100.00
5283;BME280;15376;48.540;9.268;2023-04-07T03:49:48;97327.91;;;6.05;100.00
5283;BME280;15376;48.540;9.268;2023-04-07T03:52:13;97323.63;;;6.04;100.00
5283;BME280;15376;48.540;9.268;2023-04-07T03:54:39;97325.94;;;6.07;100.00
5283;BME280;15376;48.540;9.268;2023-04-07T03:57:05;97319.00;;;5.98;100.00
5283;BME280;15376;48.540;9.268;2023-04-07T03:59:31;97314.22;;;6.01;100.00
5283;BME280;15376;48.540;9.268;2023-04-07T04:01:57;97318.19;;;6.06;100.00
5283;BME280;15376;48.540;9.268;2023-04-07T04:04:22;97325.13;;;6.07;100.00
5283;BME280;15376;48.540;9.268;2023-04-07T04:06:49;97304.81;;;5.91;100.00
5283;BME280;15376;48.540;9.268;2023-04-07T04:09:15;97324.13;;;5.99;100.00
5283;BME280;15376;48.540;9.268;2023-04-07T04:11:40;97327.22;;;5.95;100.00
5283;BME280;15376;48.540;9.268;2023-04-07T04:14:06;97330.84;;;5.94;100.00
5283;BME280;15376;48.540;9.268;2023-04-07T04:16:31;97323.94;;;5.93;100.00
5283;BME280;15376;48.540;9.268;2023-04-07T04:18:56;97303.25;;;5.80;100.00
5283;BME280;15376;48.540;9.268;2023-04-07T04:21:22;97316.63;;;5.87;100.00
5283;BME280;15376;48.540;9.268;2023-04-07T04:23:47;97302.94;;;5.83;100.00
5283;BME280;15376;48.540;9.268;2023-04-07T04:26:12;97312.31;;;5.86;100.00
5283;BME280;15376;48.540;9.268;2023-04-07T04:28:38;97311.50;;;5.85;100.00
5283;BME280;15376;48.540;9.268;2023-04-07T04:31:03;97312.31;;;5.86;100.00
5283;BME280;15376;48.540;9.268;2023-04-07T04:33:28;97289.72;;;5.75;100.00
5283;BME280;15376;48.540;9.268;2023-04-07T04:35:54;97302.56;;;5.78;100.00
5283;BME280;15376;48.540;9.268;2023-04-07T04:38:20;97305.50;;;5.75;100.00
5283;BME280;15376;48.540;9.268;2023-04-07T04:40:45;97300.09;;;5.77;100.00
5283;BME280;15376;48.540;9.268;2023-04-07T04:43:11;97301.22;;;5.74;100.00
5283;BME280;15376;48.540;9.268;2023-04-07T04:45:37;97296.44;;;5.69;100.00
5283;BME280;15376;48.540;9.268;2023-04-07T04:48:02;97287.84;;;5.59;100.00
5283;BME280;15376;48.540;9.268;2023-04-07T04:50:28;97293.63;;;5.71;100.00
5283;BME280;15376;48.540;9.268;2023-04-07T04:52:53;97305.00;;;5.72;100.00
5283;BME280;15376;48.540;9.268;2023-04-07T04:55:18;97316.16;;;5.65;100.00
5283;BME280;15376;48.540;9.268;2023-04-07T04:57:44;97303.28;;;5.54;100.00
5283;BME280;15376;48.540;9.268;2023-04-07T05:00:09;97313.34;;;5.59;100.00
5283;BME280;15376;48.540;9.268;2023-04-07T05:02:36;97312.16;;;5.53;100.00
5283;BME280;15376;48.540;9.268;2023-04-07T05:05:01;97311.19;;;5.62;100.00
5283;BME280;15376;48.540;9.268;2023-04-07T05:07:26;97312.84;;;5.63;100.00
5283;BME280;15376;48.540;9.268;2023-04-07T05:09:52;97310.06;;;5.65;100.00
5283;BME280;15376;48.540;9.268;2023-04-07T05:12:17;97309.91;;;5.66;100.00
5283;BME280;15376;48.540;9.268;2023-04-07T05:14:43;97323.09;;;5.66;100.00
5283;BME280;15376;48.540;9.268;2023-04-07T05:17:08;97319.44;;;5.59;100.00
5283;BME280;15376;48.540;9.268;2023-04-07T05:19:33;97325.34;;;5.61;100.00
5283;BME280;15376;48.540;9.268;2023-04-07T05:21:59;97322.84;;;5.52;100.00
5283;BME280;15376;48.540;9.268;2023-04-07T05:24:27;97310.50;;;5.52;100.00
5283;BME280;15376;48.540;9.268;2023-04-07T05:26:52;97307.56;;;5.55;100.00
5283;BME280;15376;48.540;9.268;2023-04-07T05:29:18;97328.66;;;5.63;100.00
5283;BME280;15376;48.540;9.268;2023-04-07T05:31:43;97330.47;;;5.63;100.00
5283;BME280;15376;48.540;9.268;2023-04-07T05:34:08;97320.09;;;5.61;100.00
5283;BME280;15376;48.540;9.268;2023-04-07T05:36:34;97322.09;;;5.67;100.00
5283;BME280;15376;48.540;9.268;2023-04-07T05:39:00;97323.59;;;5.70;100.00
5283;BME280;15376;48.540;9.268;2023-04-07T05:41:26;97317.97;;;5.65;100.00
5283;BME280;15376;48.540;9.268;2023-04-07T05:43:51;97314.66;;;5.63;100.00
5283;BME280;15376;48.540;9.268;2023-04-07T05:46:16;97313.38;;;5.67;100.00
5283;BME280;15376;48.540;9.268;2023-04-07T05:48:42;97313.56;;;5.74;100.00
5283;BME280;15376;48.540;9.268;2023-04-07T05:51:07;97313.25;;;5.77;100.00
5283;BME280;15376;48.540;9.268;2023-04-07T05:53:32;97305.38;;;5.77;100.00
5283;BME280;15376;48.540;9.268;2023-04-07T05:55:58;97315.28;;;5.83;100.00
5283;BME280;15376;48.540;9.268;2023-04-07T05:58:23;97321.13;;;5.94;100.00
5283;BME280;15376;48.540;9.268;2023-04-07T06:00:49;97331.31;;;5.89;100.00
5283;BME280;15376;48.540;9.268;2023-04-07T06:03:14;97331.69;;;5.94;100.00
5283;BME280;15376;48.540;9.268;2023-04-07T06:05:40;97336.44;;;5.91;100.00
5283;BME280;15376;48.540;9.268;2023-04-07T06:08:08;97321.66;;;5.98;100.00
5283;BME280;15376;48.540;9.268;2023-04-07T06:10:34;97323.47;;;6.06;100.00
5283;BME280;15376;48.540;9.268;2023-04-07T06:12:59;97327.63;;;6.16;100.00
5283;BME280;15376;48.540;9.268;2023-04-07T06:15:25;97326.16;;;6.22;100.00
5283;BME280;15376;48.540;9.268;2023-04-07T06:17:50;97338.13;;;6.58;100.00
5283;BME280;15376;48.540;9.268;2023-04-07T06:20:16;97328.91;;;6.54;100.00
5283;BME280;15376;48.540;9.268;2023-04-07T06:22:41;97338.31;;;6.57;100.00
5283;BME280;15376;48.540;9.268;2023-04-07T06:25:07;97327.09;;;6.63;100.00
5283;BME280;15376;48.540;9.268;2023-04-07T06:27:33;97340.47;;;6.69;100.00
5283;BME280;15376;48.540;9.268;2023-04-07T06:29:59;97338.66;;;6.70;100.00
5283;BME280;15376;48.540;9.268;2023-04-07T06:32:25;97334.72;;;6.74;100.00
5283;BME280;15376;48.540;9.268;2023-04-07T06:34:50;97323.84;;;6.77;100.00
5283;BME280;15376;48.540;9.268;2023-04-07T06:37:16;97323.84;;;6.93;100.00
5283;BME280;15376;48.540;9.268;2023-04-07T06:39:41;97325.66;;;7.01;100.00
5283;BME280;15376;48.540;9.268;2023-04-07T06:42:07;97326.81;;;6.98;100.00
5283;BME280;15376;48.540;9.268;2023-04-07T06:44:32;97327.81;;;7.06;100.00
5283;BME280;15376;48.540;9.268;2023-04-07T06:46:57;97311.31;;;7.12;100.00
5283;BME280;15376;48.540;9.268;2023-04-07T06:49:23;97318.22;;;7.21;100.00
5283;BME280;15376;48.540;9.268;2023-04-07T06:51:48;97321.03;;;7.27;100.00
5283;BME280;15376;48.540;9.268;2023-04-07T06:54:13;97324.31;;;7.29;100.00
5283;BME280;15376;48.540;9.268;2023-04-07T06:56:40;97321.03;;;7.27;100.00
5283;BME280;15376;48.540;9.268;2023-04-07T06:59:06;97309.31;;;7.38;100.00
5283;BME280;15376;48.540;9.268;2023-04-07T07:01:32;97317.34;;;7.61;100.00
5283;BME280;15376;48.540;9.268;2023-04-07T07:03:58;97311.34;;;7.83;100.00
5283;BME280;15376;48.540;9.268;2023-04-07T07:06:25;97313.31;;;7.97;100.00
5283;BME280;15376;48.540;9.268;2023-04-07T07:08:50;97307.59;;;8.17;100.00
5283;BME280;15376;48.540;9.268;2023-04-07T07:11:16;97317.78;;;8.36;100.00
5283;BME280;15376;48.540;9.268;2023-04-07T07:13:41;97318.63;;;8.59;100.00
5283;BME280;15376;48.540;9.268;2023-04-07T07:16:06;97322.41;;;8.65;100.00
5283;BME280;15376;48.540;9.268;2023-04-07T07:18:35;97324.75;;;8.60;100.00
5283;BME280;15376;48.540;9.268;2023-04-07T07:21:01;97338.81;;;8.60;100.00
5283;BME280;15376;48.540;9.268;2023-04-07T07:23:26;97327.41;;;8.60;100.00
5283;BME280;15376;48.540;9.268;2023-04-07T07:25:52;97332.03;;;8.58;100.00
5283;BME280;15376;48.540;9.268;2023-04-07T07:28:17;97331.69;;;8.61;100.00
5283;BME280;15376;48.540;9.268;2023-04-07T07:30:42;97329.50;;;8.73;100.00
5283;BME280;15376;48.540;9.268;2023-04-07T07:33:08;97302.75;;;8.59;100.00
5283;BME280;15376;48.540;9.268;2023-04-07T07:35:33;97318.66;;;8.82;100.00
5283;BME280;15376;48.540;9.268;2023-04-07T07:37:59;97320.66;;;9.03;100.00
5283;BME280;15376;48.540;9.268;2023-04-07T07:40:25;97312.19;;;9.08;100.00
5283;BME280;15376;48.540;9.268;2023-04-07T07:42:50;97313.84;;;9.09;99.59
5283;BME280;15376;48.540;9.268;2023-04-07T07:45:18;97324.94;;;9.27;97.83
5283;BME280;15376;48.540;9.268;2023-04-07T07:47:44;97334.31;;;9.52;97.65
5283;BME280;15376;48.540;9.268;2023-04-07T07:50:10;97333.91;;;9.78;99.45
5283;BME280;15376;48.540;9.268;2023-04-07T07:52:35;97334.38;;;9.96;97.46
5283;BME280;15376;48.540;9.268;2023-04-07T07:55:01;97332.88;;;10.09;97.32
5283;BME280;15376;48.540;9.268;2023-04-07T07:57:26;97324.31;;;10.21;96.12
5283;BME280;15376;48.540;9.268;2023-04-07T07:59:52;97330.25;;;9.94;96.38
5283;BME280;15376;48.540;9.268;2023-04-07T08:02:17;97329.06;;;10.26;95.65
5283;BME280;15376;48.540;9.268;2023-04-07T08:04:43;97326.00;;;10.44;93.06
5283;BME280;15376;48.540;9.268;2023-04-07T08:07:08;97322.41;;;10.66;91.06
5283;BME280;15376;48.540;9.268;2023-04-07T08:09:35;97315.84;;;10.83;88.68
5283;BME280;15376;48.540;9.268;2023-04-07T08:12:00;97324.72;;;11.12;87.47
5283;BME280;15376;48.540;9.268;2023-04-07T08:14:26;97323.56;;;11.21;85.71
5283;BME280;15376;48.540;9.268;2023-04-07T08:16:51;97321.63;;;11.08;84.37
5283;BME280;15376;48.540;9.268;2023-04-07T08:19:16;97326.00;;;11.16;85.41
5283;BME280;15376;48.540;9.268;2023-04-07T08:21:42;97328.06;;;11.20;85.41
5283;BME280;15376;48.540;9.268;2023-04-07T08:24:08;97331.91;;;10.96;85.22
5283;BME280;15376;48.540;9.268;2023-04-07T08:26:34;97316.88;;;11.03;82.10
5283;BME280;15376;48.540;9.268;2023-04-07T08:28:59;97328.72;;;10.65;86.35
5283;BME280;15376;48.540;9.268;2023-04-07T08:31:24;97338.66;;;11.14;86.35
5283;BME280;15376;48.540;9.268;2023-04-07T08:33:50;97339.09;;;11.17;85.09
5283;BME280;15376;48.540;9.268;2023-04-07T08:36:20;97336.94;;;11.06;83.38
5283;BME280;15376;48.540;9.268;2023-04-07T08:38:48;97304.72;;;10.73;84.08
5283;BME280;15376;48.540;9.268;2023-04-07T08:41:23;97335.69;;;10.66;82.77
5283;BME280;15376;48.540;9.268;2023-04-07T08:43:52;97338.44;;;10.94;82.88
5283;BME280;15376;48.540;9.268;2023-04-07T08:46:20;97335.59;;;10.95;83.29
5283;BME280;15376;48.540;9.268;2023-04-07T08:48:50;97351.47;;;10.89;80.01
5283;BME280;15376;48.540;9.268;2023-04-07T08:51:30;97334.47;;;11.05;80.73
5283;BME280;15376;48.540;9.268;2023-04-07T08:54:22;97344.63;;;11.22;81.79
5283;BME280;15376;48.540;9.268;2023-04-07T08:56:48;97348.38;;;11.49;80.10
5283;BME280;15376;48.540;9.268;2023-04-07T08:59:15;97349.47;;;11.61;78.85
5283;BME280;15376;48.540;9.268;2023-04-07T09:01:45;97347.34;;;11.50;79.42
5283;BME280;15376;48.540;9.268;2023-04-07T09:04:11;97358.88;;;11.57;78.51
5283;BME280;15376;48.540;9.268;2023-04-07T09:06:37;97344.69;;;11.50;78.64
5283;BME280;15376;48.540;9.268;2023-04-07T09:09:03;97339.66;;;11.83;76.93
5283;BME280;15376;48.540;9.268;2023-04-07T09:11:37;97340.28;;;12.20;78.16
5283;BME280;15376;48.540;9.268;2023-04-07T09:14:02;97347.53;;;12.93;76.10
5283;BME280;15376;48.540;9.268;2023-04-07T09:16:28;97343.47;;;13.11;71.72
5283;BME280;15376;48.540;9.268;2023-04-07T09:18:55;97345.19;;;13.64;72.55
5283;BME280;15376;48.540;9.268;2023-04-07T09:21:21;97346.41;;;13.95;71.37
5283;BME280;15376;48.540;9.268;2023-04-07T09:23:46;97348.41;;;14.19;68.67
5283;BME280;15376;48.540;9.268;2023-04-07T09:26:18;97353.31;;;14.35;68.18
5283;BME280;15376;48.540;9.268;2023-04-07T09:28:48;97355.03;;;13.71;69.95
5283;BME280;15376;48.540;9.268;2023-04-07T09:31:14;97352.41;;;12.77;70.61
5283;BME280;15376;48.540;9.268;2023-04-07T09:33:40;97344.88;;;12.05;73.32
5283;BME280;15376;48.540;9.268;2023-04-07T09:36:06;97352.25;;;11.75;75.57
5283;BME280;15376;48.540;9.268;2023-04-07T09:38:38;97348.34;;;11.98;75.09
5283;BME280;15376;48.540;9.268;2023-04-07T09:41:10;97345.03;;;11.68;77.70
5283;BME280;15376;48.540;9.268;2023-04-07T09:43:38;97342.25;;;11.77;77.98
5283;BME280;15376;48.540;9.268;2023-04-07T09:46:18;97332.06;;;12.15;77.95
5283;BME280;15376;48.540;9.268;2023-04-07T09:48:45;97334.09;;;14.65;71.21
5283;BME280;15376;48.540;9.268;2023-04-07T09:51:15;97340.56;;;17.23;59.82
5283;BME280;15376;48.540;9.268;2023-04-07T09:53:49;97335.34;;;18.05;54.80
5283;BME280;15376;48.540;9.268;2023-04-07T09:56:17;97337.97;;;19.77;49.90
5283;BME280;15376;48.540;9.268;2023-04-07T09:58:45;97335.59;;;20.52;48.60
5283;BME280;15376;48.540;9.268;2023-04-07T10:01:11;97333.47;;;22.68;42.27
5283;BME280;15376;48.540;9.268;2023-04-07T10:03:37;97324.16;;;21.70;39.66
5283;BME280;15376;48.540;9.268;2023-04-07T10:06:04;97327.66;;;20.46;42.39
5283;BME280;15376;48.540;9.268;2023-04-07T10:08:35;97339.25;;;21.34;41.41
5283;BME280;15376;48.540;9.268;2023-04-07T10:11:04;97331.75;;;22.05;38.93
5283;BME280;15376;48.540;9.268;2023-04-07T10:13:35;97337.88;;;21.58;39.06
5283;BME280;15376;48.540;9.268;2023-04-07T10:16:05;97335.56;;;19.63;43.33
5283;BME280;15376;48.540;9.268;2023-04-07T10:18:36;97336.00;;;18.98;44.45
5283;BME280;15376;48.540;9.268;2023-04-07T10:21:07;97328.56;;;18.89;43.75
5283;BME280;15376;48.540;9.268;2023-04-07T10:24:03;97329.00;;;17.52;49.08
5283;BME280;15376;48.540;9.268;2023-04-07T10:26:33;97322.53;;;16.33;50.42
5283;BME280;15376;48.540;9.268;2023-04-07T10:29:08;97327.84;;;15.97;51.32
5283;BME280;15376;48.540;9.268;2023-04-07T10:31:37;97328.88;;;15.46;53.27
5283;BME280;15376;48.540;9.268;2023-04-07T10:34:03;97311.03;;;15.90;51.06
5283;BME280;15376;48.540;9.268;2023-04-07T10:36:30;97324.78;;;15.44;53.06
5283;BME280;15376;48.540;9.268;2023-04-07T10:41:36;97312.66;;;16.09;52.62
5283;BME280;15376;48.540;9.268;2023-04-07T10:44:06;97320.91;;;15.64;53.60
5283;BME280;15376;48.540;9.268;2023-04-07T10:49:10;97324.53;;;15.20;54.69
5283;BME280;15376;48.540;9.268;2023-04-07T10:51:36;97322.31;;;14.79;56.04
5283;BME280;15376;48.540;9.268;2023-04-07T10:54:15;97315.38;;;14.65;56.50
5283;BME280;15376;48.540;9.268;2023-04-07T10:59:32;97322.94;;;15.69;53.40
5283;BME280;15376;48.540;9.268;2023-04-07T11:04:42;97316.03;;;14.98;55.20
5283;BME280;15376;48.540;9.268;2023-04-07T11:07:09;97309.22;;;14.64;56.11
5283;BME280;15376;48.540;9.268;2023-04-07T11:09:35;97316.56;;;14.18;57.07
5283;BME280;15376;48.540;9.268;2023-04-07T11:12:00;97326.41;;;14.24;57.87
5283;BME280;15376;48.540;9.268;2023-04-07T11:14:27;97317.09;;;14.53;55.01
5283;BME280;15376;48.540;9.268;2023-04-07T11:16:53;97316.34;;;14.19;56.18
5283;BME280;15376;48.540;9.268;2023-04-07T11:19:19;97291.97;;;13.96;57.38
5283;BME280;15376;48.540;9.268;2023-04-07T11:21:44;97313.47;;;14.27;57.39
5283;BME280;15376;48.540;9.268;2023-04-07T11:24:10;97313.38;;;14.54;58.18
5283;BME280;15376;48.540;9.268;2023-04-07T11:26:55;97314.97;;;14.68;56.06
5283;BME280;15376;48.540;9.268;2023-04-07T11:29:32;97311.81;;;14.33;57.67
5283;BME280;15376;48.540;9.268;2023-04-07T11:31:59;97315.88;;;14.49;55.24
5283;BME280;15376;48.540;9.268;2023-04-07T11:34:30;97287.63;;;14.01;55.60
5283;BME280;15376;48.540;9.268;2023-04-07T11:36:56;97302.63;;;14.02;55.54
5283;BME280;15376;48.540;9.268;2023-04-07T11:39:25;97310.78;;;14.27;55.95
5283;BME280;15376;48.540;9.268;2023-04-07T11:41:57;97320.94;;;13.92;57.40
5283;BME280;15376;48.540;9.268;2023-04-07T11:44:23;97311.91;;;13.74;58.32
5283;BME280;15376;48.540;9.268;2023-04-07T11:46:58;97326.72;;;13.56;58.94
5283;BME280;15376;48.540;9.268;2023-04-07T11:49:25;97327.00;;;12.87;63.13
5283;BME280;15376;48.540;9.268;2023-04-07T11:52:11;97327.44;;;12.30;63.80
5283;BME280;15376;48.540;9.268;2023-04-07T11:54:41;97337.41;;;11.87;63.74
5283;BME280;15376;48.540;9.268;2023-04-07T11:57:07;97307.16;;;11.66;63.41
5283;BME280;15376;48.540;9.268;2023-04-07T11:59:34;97316.34;;;11.64;63.37
5283;BME280;15376;48.540;9.268;2023-04-07T12:02:00;97313.16;;;11.75;64.91
5283;BME280;15376;48.540;9.268;2023-04-07T12:04:26;97335.16;;;12.18;64.14
5283;BME280;15376;48.540;9.268;2023-04-07T12:06:51;97337.75;;;12.12;61.55
5283;BME280;15376;48.540;9.268;2023-04-07T12:09:35;97326.00;;;11.93;63.45
5283;BME280;15376;48.540;9.268;2023-04-07T12:12:03;97309.84;;;11.94;64.14
5283;BME280;15376;48.540;9.268;2023-04-07T12:14:30;97337.66;;;12.74;62.75
5283;BME280;15376;48.540;9.268;2023-04-07T12:16:56;97336.28;;;12.44;62.93
5283;BME280;15376;48.540;9.268;2023-04-07T12:19:24;97333.44;;;12.52;63.60
5283;BME280;15376;48.540;9.268;2023-04-07T12:21:49;97348.25;;;12.61;64.55
5283;BME280;15376;48.540;9.268;2023-04-07T12:24:15;97347.47;;;12.80;62.83
5283;BME280;15376;48.540;9.268;2023-04-07T12:26:41;97344.97;;;12.59;63.83
5283;BME280;15376;48.540;9.268;2023-04-07T12:29:06;97335.81;;;12.75;64.61
5283;BME280;15376;48.540;9.268;2023-04-07T12:31:32;97355.94;;;12.90;66.33
5283;BME280;15376;48.540;9.268;2023-04-07T12:33:58;97352.88;;;13.00;67.00
5283;BME280;15376;48.540;9.268;2023-04-07T12:36:24;97348.31;;;12.87;66.68
5283;BME280;15376;48.540;9.268;2023-04-07T12:38:52;97345.78;;;13.27;64.44
5283;BME280;15376;48.540;9.268;2023-04-07T12:41:17;97326.66;;;13.10;64.96
5283;BME280;15376;48.540;9.268;2023-04-07T12:43:43;97364.59;;;13.12;62.84
5283;BME280;15376;48.540;9.268;2023-04-07T12:46:08;97366.94;;;13.61;62.76
5283;BME280;15376;48.540;9.268;2023-04-07T12:48:33;97371.47;;;13.48;61.34
5283;BME280;15376;48.540;9.268;2023-04-07T12:50:59;97371.66;;;13.53;60.92
5283;BME280;15376;48.540;9.268;2023-04-07T12:53:27;97375.97;;;13.47;62.12
5283;BME280;15376;48.540;9.268;2023-04-07T12:55:53;97363.84;;;13.38;61.55
5283;BME280;15376;48.540;9.268;2023-04-07T12:58:22;97364.47;;;13.47;63.37
5283;BME280;15376;48.540;9.268;2023-04-07T13:00:47;97376.63;;;12.88;62.94
5283;BME280;15376;48.540;9.268;2023-04-07T13:03:13;97372.09;;;12.76;65.09
5283;BME280;15376;48.540;9.268;2023-04-07T13:05:38;97354.31;;;12.42;66.29
5283;BME280;15376;48.540;9.268;2023-04-07T13:08:04;97335.31;;;12.10;68.20
5283;BME280;15376;48.540;9.268;2023-04-07T13:10:29;97376.47;;;12.49;69.55
5283;BME280;15376;48.540;9.268;2023-04-07T13:12:55;97373.94;;;12.75;69.95
5283;BME280;15376;48.540;9.268;2023-04-07T13:15:20;97373.72;;;12.83;68.65
5283;BME280;15376;48.540;9.268;2023-04-07T13:17:45;97355.69;;;12.85;70.60
5283;BME280;15376;48.540;9.268;2023-04-07T13:20:11;97372.13;;;12.95;68.34
5283;BME280;15376;48.540;9.268;2023-04-07T13:22:37;97366.97;;;12.87;69.18
5283;BME280;15376;48.540;9.268;2023-04-07T13:25:03;97367.19;;;12.86;69.08